Location Sebastian, FL, US

ob KFLSEBAS1 231930Z AUTO 02001G10KT FEW044 29/22 A3002 RMK SLPNO 

2019.09.23 1930 UTC
Wind from the NNE (17 degrees) at 1.0 MPH (1 KT) gusting to 12.0 MPH (10 KT)
Visibility    Mile(s)
Sky Conditions  partly cloudy
Temperature 83.60 F (29 C)
Dew Point 71.49 F (22 C)
Relative Humidity 67%
Pressure   30.02 in. Hg (1017 hPa)
Rain  0.00 in.
Daily Rain  in.

Station Name  Memory Makers, Inc.
Longitude, Latitude  -80.48, 27.8
Elevation 23
Station URL www.kflsebas1.com
Software Type VWS V15.00